createdAt,value
2023-03-21T00:09:44.138Z,65.16
2023-03-21T00:19:51.181Z,65.09
2023-03-21T00:29:57.986Z,65.33
2023-03-21T00:40:25.405Z,65.31
2023-03-21T00:50:34.614Z,65.70
2023-03-21T01:00:39.324Z,65.88
2023-03-21T01:10:48.316Z,65.99
2023-03-21T01:20:54.993Z,65.96
2023-03-21T01:31:03.500Z,66.09
2023-03-21T01:41:18.791Z,65.97
2023-03-21T01:51:30.981Z,65.93
2023-03-21T02:01:40.504Z,65.82
2023-03-21T02:11:49.416Z,65.68
2023-03-21T02:21:58.083Z,65.70
2023-03-21T02:32:37.422Z,65.32
2023-03-21T02:43:01.161Z,65.27
2023-03-21T02:53:13.703Z,65.16
2023-03-21T03:03:33.068Z,65.14
2023-03-21T03:13:54.161Z,65.36
2023-03-21T03:24:10.057Z,65.76
2023-03-21T03:34:20.824Z,65.81
2023-03-21T03:44:26.294Z,65.71
2023-03-21T03:54:41.737Z,65.99
2023-03-21T04:04:46.249Z,66.11
2023-03-21T04:14:53.292Z,66.22
2023-03-21T04:25:01.985Z,66.39
2023-03-21T04:35:08.683Z,66.45
2023-03-21T04:45:15.919Z,66.26
2023-03-21T04:55:23.425Z,66.22
2023-03-21T05:05:27.313Z,66.35
2023-03-21T05:15:31.535Z,66.27
2023-03-21T05:25:39.040Z,65.82
2023-03-21T05:35:51.886Z,65.72
2023-03-21T05:45:58.716Z,65.49
2023-03-21T05:56:09.012Z,65.24
2023-03-21T06:06:27.942Z,65.05
2023-03-21T06:16:44.109Z,64.67
2023-03-21T06:26:48.618Z,63.78
2023-03-21T06:36:56.615Z,63.41
2023-03-21T06:47:07.934Z,62.88
2023-03-21T06:57:13.663Z,62.23
2023-03-21T07:07:18.379Z,61.01
2023-03-21T07:17:22.297Z,59.90
2023-03-21T07:27:27.468Z,59.45
2023-03-21T07:37:35.911Z,59.00
2023-03-21T07:47:44.039Z,58.79
2023-03-21T07:57:54.394Z,59.17
2023-03-21T08:07:58.070Z,58.83
2023-03-21T08:18:02.978Z,56.28
2023-03-21T08:28:06.501Z,54.25
2023-03-21T08:38:10.329Z,53.04
2023-03-21T08:48:14.084Z,52.37
2023-03-21T08:58:18.101Z,53.24
2023-03-21T09:08:28.561Z,54.02
2023-03-21T09:18:55.710Z,52.59
2023-03-21T09:29:01.104Z,52.76
2023-03-21T09:39:08.317Z,51.48
2023-03-21T09:49:29.804Z,49.70
2023-03-21T09:59:41.564Z,49.73
2023-03-21T10:09:50.221Z,49.92
2023-03-21T10:20:32.894Z,50.18
2023-03-21T10:30:42.474Z,49.58
2023-03-21T10:40:49.073Z,49.36
2023-03-21T10:50:55.518Z,49.38
2023-03-21T11:01:13.601Z,47.99
2023-03-21T11:11:27.861Z,47.80
2023-03-21T11:21:39.215Z,47.76
2023-03-21T11:31:43.477Z,47.15
2023-03-21T11:41:51.973Z,45.58
2023-03-21T11:52:04.799Z,44.64
2023-03-21T12:02:44.364Z,44.70
2023-03-21T12:13:26.680Z,44.74
2023-03-21T12:23:41.287Z,45.35
2023-03-21T12:33:59.718Z,45.76
2023-03-21T12:44:22.542Z,45.35
2023-03-21T12:54:43.123Z,45.44
2023-03-21T13:05:19.863Z,45.58
2023-03-21T13:15:33.776Z,46.02
2023-03-21T13:25:49.832Z,45.86
2023-03-21T13:36:43.604Z,46.21
2023-03-21T13:47:25.749Z,46.17
2023-03-21T14:10:31.046Z,46.06
2023-03-21T14:20:38.987Z,45.58
2023-03-21T14:30:45.840Z,45.87
2023-03-21T14:40:53.779Z,45.69
2023-03-21T14:52:14.186Z,46.55
2023-03-21T15:02:28.405Z,46.33
2023-03-21T15:12:36.259Z,46.19
2023-03-21T15:22:46.522Z,46.10
2023-03-21T15:32:51.457Z,46.26
2023-03-21T15:43:22.774Z,46.61
2023-03-21T15:53:27.751Z,46.29
2023-03-21T16:03:41.924Z,45.45
2023-03-21T16:13:46.564Z,45.98
2023-03-21T16:23:52.492Z,46.00
2023-03-21T16:33:56.167Z,46.16
2023-03-21T16:44:03.439Z,46.43
2023-03-21T16:54:07.203Z,46.77
2023-03-21T17:04:13.184Z,47.60
2023-03-21T17:14:18.246Z,48.50
2023-03-21T17:24:23.392Z,49.58
2023-03-21T17:34:27.447Z,50.62
2023-03-21T17:44:31.192Z,51.91
2023-03-21T17:54:36.561Z,52.67
2023-03-21T18:04:47.107Z,53.28
2023-03-21T18:15:30.780Z,53.80
2023-03-21T18:30:22.187Z,54.40
2023-03-21T18:37:39.479Z,54.74
2023-03-21T19:10:51.652Z,56.18
2023-03-21T19:20:58.824Z,57.11
2023-03-21T19:31:07.862Z,57.49
2023-03-21T19:41:23.390Z,57.83
2023-03-21T19:51:30.923Z,57.97
2023-03-21T20:02:21.574Z,57.91
2023-03-21T20:12:27.895Z,58.39
2023-03-21T20:33:05.481Z,58.81
2023-03-21T20:44:11.694Z,58.89
2023-03-21T20:53:50.271Z,59.20
2023-03-21T21:04:03.796Z,58.80
2023-03-21T21:14:14.474Z,58.99
2023-03-21T21:24:19.401Z,59.10
2023-03-21T21:34:25.614Z,59.25
2023-03-21T21:44:29.576Z,59.74
2023-03-21T21:54:36.120Z,59.82
2023-03-21T22:04:40.293Z,59.82
2023-03-21T22:14:44.101Z,60.24
2023-03-21T22:24:47.988Z,60.72
2023-03-21T22:34:51.565Z,60.45
2023-03-21T22:44:55.536Z,60.25
2023-03-21T22:55:01.007Z,60.03
2023-03-21T23:05:04.902Z,60.28
2023-03-21T23:15:09.816Z,60.25
2023-03-21T23:25:13.652Z,60.59
2023-03-21T23:35:17.585Z,60.95
2023-03-21T23:45:21.457Z,61.06
2023-03-21T23:55:29.803Z,61.62
